createdAt,value
2019-03-03T00:01:51.574Z,17.93
2019-03-03T00:06:44.971Z,12.83
2019-03-03T00:11:38.693Z,14.17
2019-03-03T00:16:32.157Z,12.77
2019-03-03T00:21:25.739Z,10.63
2019-03-03T00:26:19.114Z,11.87
2019-03-03T00:31:12.515Z,11.00
2019-03-03T00:36:05.888Z,10.43
2019-03-03T00:41:17.712Z,8.43
2019-03-03T00:46:28.601Z,14.27
2019-03-03T00:51:36.321Z,15.03
2019-03-03T00:56:45.060Z,11.37
2019-03-03T01:01:55.542Z,9.90
2019-03-03T01:07:07.359Z,9.63
2019-03-03T01:12:18.350Z,11.70
2019-03-03T01:17:32.445Z,11.87
2019-03-03T01:22:32.956Z,7.33
2019-03-03T01:27:26.861Z,12.83
2019-03-03T01:32:20.258Z,12.93
2019-03-03T01:37:13.902Z,8.30
2019-03-03T01:42:07.577Z,10.87
2019-03-03T01:47:01.266Z,12.70
2019-03-03T01:51:54.670Z,13.10
2019-03-03T01:56:48.104Z,12.13
2019-03-03T02:01:41.496Z,16.07
2019-03-03T02:06:35.077Z,14.03
2019-03-03T02:11:28.775Z,13.63
2019-03-03T02:16:22.158Z,12.13
2019-03-03T02:21:15.534Z,11.73
2019-03-03T02:26:08.938Z,15.03
2019-03-03T02:31:02.602Z,9.47
2019-03-03T02:35:55.955Z,11.83
2019-03-03T02:40:49.337Z,11.13
2019-03-03T02:45:42.697Z,9.33
2019-03-03T02:50:36.065Z,11.50
2019-03-03T02:55:29.496Z,11.17
2019-03-03T03:00:23.180Z,11.27
2019-03-03T03:05:17.201Z,15.73
2019-03-03T03:10:28.991Z,11.77
2019-03-03T03:15:31.737Z,14.03
2019-03-03T03:20:47.085Z,11.33
2019-03-03T03:25:46.834Z,13.00
2019-03-03T03:31:02.563Z,10.60
2019-03-03T03:36:06.663Z,13.70
2019-03-03T03:41:28.663Z,12.10
2019-03-03T03:46:30.213Z,9.13
2019-03-03T03:51:30.144Z,11.83
2019-03-03T03:56:41.460Z,10.63
2019-03-03T04:01:56.854Z,10.07
2019-03-03T04:07:12.445Z,9.53
2019-03-03T04:12:18.297Z,16.03
2019-03-03T04:17:31.286Z,10.83
2019-03-03T04:22:49.383Z,10.67
2019-03-03T04:28:02.013Z,12.37
2019-03-03T04:33:13.514Z,11.80
2019-03-03T04:38:25.174Z,13.57
2019-03-03T04:43:36.861Z,12.33
2019-03-03T04:48:46.431Z,11.87
2019-03-03T04:53:58.289Z,11.77
2019-03-03T04:58:58.156Z,6.37
2019-03-03T05:04:09.644Z,8.17
2019-03-03T05:09:11.563Z,6.83
2019-03-03T05:14:19.141Z,8.47
2019-03-03T05:19:21.125Z,6.07
2019-03-03T05:24:14.577Z,6.03
2019-03-03T05:29:07.971Z,8.17
2019-03-03T05:34:01.321Z,5.23
2019-03-03T05:38:54.820Z,7.77
2019-03-03T05:43:48.231Z,5.20
2019-03-03T05:48:41.587Z,6.80
2019-03-03T05:53:34.958Z,6.43
2019-03-03T05:58:28.684Z,6.13
2019-03-03T06:03:21.986Z,3.57
2019-03-03T06:08:15.383Z,5.97
2019-03-03T06:13:08.772Z,5.70
2019-03-03T06:18:02.145Z,4.70
2019-03-03T06:22:55.518Z,4.77
2019-03-03T06:27:48.897Z,4.23
2019-03-03T06:32:42.280Z,5.63
2019-03-03T06:37:35.966Z,6.00
2019-03-03T06:42:29.342Z,4.47
2019-03-03T06:47:23.040Z,6.20
2019-03-03T06:52:16.426Z,4.67
2019-03-03T06:57:09.797Z,6.33
2019-03-03T07:02:03.787Z,5.23
2019-03-03T07:06:57.168Z,3.83
2019-03-03T07:11:50.555Z,5.57
2019-03-03T07:16:44.215Z,4.80
2019-03-03T07:21:37.575Z,3.20
2019-03-03T07:26:30.988Z,2.53
2019-03-03T07:31:24.402Z,3.17
2019-03-03T07:36:17.796Z,4.50
2019-03-03T07:41:11.208Z,3.47
2019-03-03T07:46:04.802Z,3.03
2019-03-03T07:50:58.185Z,3.80
2019-03-03T07:55:51.552Z,2.90
2019-03-03T08:00:44.919Z,2.60
2019-03-03T08:05:38.312Z,2.33
2019-03-03T08:10:31.699Z,2.93
2019-03-03T08:15:25.074Z,3.47
2019-03-03T08:20:18.442Z,2.20
2019-03-03T08:25:11.842Z,3.10
2019-03-03T08:30:06.180Z,2.83
2019-03-03T08:34:59.548Z,3.10
2019-03-03T08:39:52.921Z,4.07
2019-03-03T08:44:57.364Z,2.13
2019-03-03T08:50:01.298Z,3.07
2019-03-03T08:55:16.898Z,3.77
2019-03-03T09:00:19.693Z,2.53
2019-03-03T09:05:26.397Z,2.53
2019-03-03T09:10:28.059Z,2.70
2019-03-03T09:15:28.580Z,2.63
2019-03-03T09:20:52.901Z,2.77
2019-03-03T09:25:55.801Z,2.70
2019-03-03T09:31:20.020Z,1.50
2019-03-03T09:36:36.338Z,3.20
2019-03-03T09:41:47.628Z,2.67
2019-03-03T09:47:15.253Z,1.37
2019-03-03T09:52:34.044Z,3.10
2019-03-03T09:57:49.584Z,1.33
2019-03-03T10:02:56.895Z,1.83
2019-03-03T10:08:27.831Z,3.87
2019-03-03T10:13:36.940Z,7.43
2019-03-03T10:18:37.854Z,5.30
2019-03-03T10:23:41.889Z,4.40
2019-03-03T10:29:03.941Z,6.53
2019-03-03T10:34:15.374Z,16.63
2019-03-03T10:39:30.958Z,11.63
2019-03-03T10:44:43.656Z,13.03
2019-03-03T10:49:44.932Z,9.33
2019-03-03T10:54:57.555Z,10.20
2019-03-03T11:00:02.926Z,10.20
2019-03-03T11:05:05.744Z,12.73
2019-03-03T11:10:18.442Z,10.63
2019-03-03T11:15:43.558Z,9.17
2019-03-03T11:20:51.707Z,9.00
2019-03-03T11:26:03.153Z,7.87
2019-03-03T11:31:06.427Z,7.33
2019-03-03T11:36:34.251Z,9.70
2019-03-03T11:41:37.544Z,10.47
2019-03-03T11:46:37.972Z,7.77
2019-03-03T11:51:53.610Z,9.13
2019-03-03T11:57:01.077Z,7.00
2019-03-03T12:02:16.793Z,7.77
2019-03-03T12:07:21.514Z,9.97
2019-03-03T12:12:41.931Z,8.50
2019-03-03T12:17:43.581Z,7.50
2019-03-03T12:23:06.492Z,7.17
2019-03-03T12:28:19.304Z,6.67
2019-03-03T12:33:30.303Z,9.13
2019-03-03T12:38:43.253Z,10.27
2019-03-03T12:43:59.059Z,6.80
2019-03-03T12:49:05.855Z,4.70
2019-03-03T12:54:24.217Z,7.20
2019-03-03T12:59:26.822Z,7.77
2019-03-03T13:04:51.328Z,4.67
2019-03-03T13:10:03.463Z,3.40
2019-03-03T13:15:28.424Z,5.77
2019-03-03T13:20:34.948Z,6.63
2019-03-03T13:25:46.230Z,4.17
2019-03-03T13:31:01.907Z,7.23
2019-03-03T13:36:13.400Z,10.93
2019-03-03T13:41:18.531Z,11.23
2019-03-03T13:46:11.899Z,9.27
2019-03-03T13:51:05.363Z,9.97
2019-03-03T13:55:59.056Z,5.93
2019-03-03T14:00:52.711Z,9.67
2019-03-03T14:05:46.104Z,6.73
2019-03-03T14:10:39.785Z,9.17
2019-03-03T14:15:33.230Z,7.83
2019-03-03T14:20:26.895Z,11.27
2019-03-03T14:25:20.581Z,10.83
2019-03-03T14:30:15.557Z,10.20
2019-03-03T14:35:09.369Z,9.33
2019-03-03T14:40:02.931Z,10.40
2019-03-03T14:44:56.543Z,12.80
2019-03-03T14:49:50.204Z,13.90
2019-03-03T14:54:43.903Z,14.10
2019-03-03T14:59:37.311Z,15.00
2019-03-03T15:04:31.045Z,12.67
2019-03-03T15:09:24.694Z,14.07
2019-03-03T15:14:18.313Z,13.80
2019-03-03T15:19:12.043Z,13.40
2019-03-03T15:24:05.444Z,15.83
2019-03-03T15:28:59.127Z,18.33
2019-03-03T15:33:52.834Z,16.40
2019-03-03T15:38:46.458Z,17.43
2019-03-03T15:43:40.146Z,13.43
2019-03-03T15:48:33.862Z,16.20
2019-03-03T15:53:27.540Z,15.20
2019-03-03T15:58:21.235Z,17.93
2019-03-03T16:03:14.875Z,17.20
2019-03-03T16:08:08.572Z,16.23
2019-03-03T16:13:03.846Z,21.17
2019-03-03T16:17:55.938Z,23.40
2019-03-03T16:22:49.643Z,19.33
2019-03-03T16:27:43.302Z,16.10
2019-03-03T16:32:37.000Z,14.37
2019-03-03T16:37:30.725Z,18.17
2019-03-03T16:42:24.126Z,16.20
2019-03-03T16:47:17.754Z,11.60
2019-03-03T16:52:11.444Z,13.20
2019-03-03T16:57:05.114Z,13.83
2019-03-03T17:01:58.512Z,16.47
2019-03-03T17:06:52.216Z,12.77
2019-03-03T17:11:45.862Z,12.73
2019-03-03T17:16:39.582Z,12.77
2019-03-03T17:21:33.300Z,11.63
2019-03-03T17:26:26.696Z,12.73
2019-03-03T17:31:20.378Z,8.63
2019-03-03T17:36:13.770Z,10.13
2019-03-03T17:41:07.496Z,10.67
2019-03-03T17:46:00.886Z,10.37
2019-03-03T17:50:54.306Z,11.07
2019-03-03T17:55:47.681Z,12.73
2019-03-03T18:00:41.941Z,8.13
2019-03-03T18:05:35.309Z,14.50
2019-03-03T18:10:28.888Z,8.90
2019-03-03T18:15:22.317Z,14.90
2019-03-03T18:20:15.727Z,12.67
2019-03-03T18:25:10.071Z,10.80
2019-03-03T18:30:03.637Z,8.97
2019-03-03T18:34:57.308Z,13.17
2019-03-03T18:39:51.297Z,10.23
2019-03-03T18:44:44.988Z,8.57
2019-03-03T18:49:38.396Z,10.50
2019-03-03T18:54:31.771Z,9.73
2019-03-03T18:59:25.480Z,8.33
2019-03-03T19:04:18.936Z,6.67
2019-03-03T19:09:17.359Z,9.37
2019-03-03T19:14:10.751Z,11.87
2019-03-03T19:19:04.190Z,7.80
2019-03-03T19:23:57.871Z,8.90
2019-03-03T19:28:51.534Z,9.60
2019-03-03T19:33:46.888Z,10.10
2019-03-03T19:38:40.273Z,6.40
2019-03-03T19:43:33.826Z,8.97
2019-03-03T19:48:27.516Z,6.90
2019-03-03T19:53:20.898Z,6.47
2019-03-03T19:58:14.587Z,9.00
2019-03-03T20:03:08.303Z,7.43
2019-03-03T20:08:01.949Z,9.30
2019-03-03T20:12:55.636Z,8.50
2019-03-03T20:17:49.337Z,7.50
2019-03-03T20:22:42.747Z,9.53
2019-03-03T20:27:36.414Z,4.13
2019-03-03T20:32:29.826Z,6.63
2019-03-03T20:37:23.776Z,7.37
2019-03-03T20:42:17.207Z,6.20
2019-03-03T20:47:10.826Z,7.40
2019-03-03T20:52:04.647Z,4.27
2019-03-03T20:56:58.186Z,5.27
2019-03-03T21:01:51.579Z,5.30
2019-03-03T21:06:45.002Z,4.23
2019-03-03T21:11:38.379Z,4.57
2019-03-03T21:16:31.778Z,4.93
2019-03-03T21:21:25.707Z,8.33
2019-03-03T21:26:19.122Z,4.23
2019-03-03T21:31:12.753Z,6.83
2019-03-03T21:36:06.134Z,7.57
2019-03-03T21:40:59.535Z,11.10
2019-03-03T21:45:53.222Z,8.60
2019-03-03T21:50:46.885Z,6.93
2019-03-03T21:55:40.252Z,6.23
2019-03-03T22:00:34.514Z,10.70
2019-03-03T22:05:27.938Z,8.10
2019-03-03T22:10:29.144Z,7.50
2019-03-03T22:15:22.707Z,6.30
2019-03-03T22:20:16.420Z,7.37
2019-03-03T22:25:09.775Z,9.77
2019-03-03T22:30:03.532Z,6.60
2019-03-03T22:34:56.932Z,5.10
2019-03-03T22:39:50.520Z,7.97
2019-03-03T22:44:44.204Z,6.93
2019-03-03T22:49:37.992Z,6.53
2019-03-03T22:54:31.987Z,7.67
2019-03-03T22:59:25.762Z,7.00
2019-03-03T23:04:37.697Z,7.40
2019-03-03T23:09:50.349Z,6.20
2019-03-03T23:14:48.343Z,6.27
2019-03-03T23:19:44.390Z,7.73
2019-03-03T23:24:50.768Z,5.97
2019-03-03T23:29:44.202Z,6.77
2019-03-03T23:34:37.598Z,4.93
2019-03-03T23:39:31.294Z,4.83
2019-03-03T23:44:24.973Z,4.23
2019-03-03T23:49:18.639Z,6.03
2019-03-03T23:54:12.027Z,5.13
2019-03-03T23:59:05.716Z,6.03
